Time;durP1;ratioP1;P1;durP2;ratioP2;P2;SDS_P1;SDS_P2;PMS_P1;PMS_P2;Temp;Humidity;BMP_temperature;BMP_pressure;BME280_temperature;BME280_humidity;BME280_pressure;Samples;Min_cycle;Max_cycle;Signal;HPM_P1;HPM_P2
2021/04/23 00:00:39;;;;;;;5.53;2.30;;;;;;;8.44;48.68;97044.00;5072449;28;20416;-66
2021/04/23 00:03:13;;;;;;;10.40;2.90;;;;;;;8.26;48.91;97042.69;5072420;28;20416;-60
2021/04/23 00:05:39;;;;;;;4.63;2.37;;;;;;;8.31;48.88;97042.91;5073634;28;20530;-60
2021/04/23 00:08:05;;;;;;;5.53;3.13;;;;;;;8.16;49.19;97044.84;5071352;28;20416;-66
2021/04/23 00:10:30;;;;;;;4.57;2.20;;;;;;;7.99;49.19;97045.34;5066661;28;20203;-66
2021/04/23 00:12:55;;;;;;;8.10;2.90;;;;;;;7.74;49.94;97036.31;5072795;28;20195;-60
2021/04/23 00:15:22;;;;;;;8.83;2.67;;;;;;;7.80;50.35;97039.00;5073173;28;20669;-60
2021/04/23 00:17:48;;;;;;;3.93;1.90;;;;;;;8.07;50.10;97043.38;5073145;28;20174;-66
2021/04/23 00:20:15;;;;;;;4.93;2.50;;;;;;;8.00;50.66;97052.19;5073264;28;20435;-60
2021/04/23 00:22:41;;;;;;;5.33;2.40;;;;;;;7.92;51.03;97053.13;5073404;28;20413;-60
2021/04/23 00:25:07;;;;;;;3.77;2.47;;;;;;;7.95;50.53;97050.13;5067798;28;20433;-60
2021/04/23 00:27:33;;;;;;;4.87;2.43;;;;;;;7.89;50.25;97053.53;5054734;28;20179;-66
2021/04/23 00:30:00;;;;;;;6.30;3.10;;;;;;;7.70;51.72;97053.41;5069326;28;20463;-66
2021/04/23 00:35:11;;;;;;;3.87;2.03;;;;;;;7.50;50.94;97053.22;5053523;28;20491;-60
2021/04/23 00:37:37;;;;;;;3.77;2.50;;;;;;;7.54;50.74;97051.84;5052824;28;20439;-66
2021/04/23 00:40:04;;;;;;;2.10;2.00;;;;;;;7.44;50.93;97048.78;5064116;28;20487;-66
2021/04/23 00:42:29;;;;;;;3.53;2.77;;;;;;;7.38;51.36;97056.53;5073723;28;20160;-66
2021/04/23 00:44:54;;;;;;;6.70;3.80;;;;;;;7.32;50.05;97054.69;5073358;28;20788;-60
2021/04/23 00:47:20;;;;;;;4.67;2.67;;;;;;;7.28;50.29;97056.88;5064719;28;20261;-60
2021/04/23 00:49:45;;;;;;;2.73;2.37;;;;;;;7.52;49.83;97051.22;5053202;28;20198;-60
2021/04/23 00:52:11;;;;;;;3.93;2.43;;;;;;;7.53;49.72;97058.09;5053180;28;20166;-60
2021/04/23 00:54:36;;;;;;;4.20;2.60;;;;;;;7.20;52.14;97047.38;5063519;28;20212;-66
2021/04/23 00:57:02;;;;;;;3.10;2.43;;;;;;;7.01;53.77;97052.41;5072912;28;20191;-60
2021/04/23 00:59:27;;;;;;;4.20;2.87;;;;;;;7.10;53.73;97059.91;5072986;28;20196;-65
2021/04/23 01:02:04;;;;;;;6.27;3.43;;;;;;;7.36;52.40;97056.75;5066716;28;20227;-60
2021/04/23 01:04:31;;;;;;;2.97;2.70;;;;;;;7.38;51.95;97054.75;5053924;28;20570;-60
2021/04/23 01:06:57;;;;;;;5.33;2.73;;;;;;;7.39;52.01;97053.75;5069269;28;20420;-59
2021/04/23 01:09:26;;;;;;;2.80;2.30;;;;;;;7.13;53.34;97049.09;5052768;28;20839;-66
2021/04/23 01:11:53;;;;;;;3.33;2.40;;;;;;;7.21;52.69;97051.56;5052796;28;20929;-60
2021/04/23 01:14:19;;;;;;;10.17;2.77;;;;;;;7.08;53.88;97048.84;5052751;28;20538;-60
2021/04/23 01:16:45;;;;;;;9.97;3.23;;;;;;;7.28;53.51;97046.44;5052986;28;20407;-60
2021/04/23 01:19:18;;;;;;;3.07;2.43;;;;;;;7.38;51.38;97044.28;5054262;28;20476;-66
2021/04/23 01:21:44;;;;;;;5.80;3.00;;;;;;;7.40;50.90;97049.31;5064074;28;20418;-60
2021/04/23 01:24:11;;;;;;;2.93;2.40;;;;;;;7.36;50.99;97048.91;5074815;28;20425;-66
2021/04/23 01:26:40;;;;;;;3.43;2.20;;;;;;;7.35;52.47;97041.25;5076614;28;20409;-60
2021/04/23 01:29:08;;;;;;;3.10;2.27;;;;;;;7.34;51.82;97048.28;5075273;28;20437;-66
2021/04/23 01:31:37;;;;;;;4.37;2.60;;;;;;;7.32;51.78;97048.47;5056602;28;20472;-66
2021/04/23 01:34:16;;;;;;;5.90;2.63;;;;;;;7.26;51.57;97051.03;5056300;28;20476;-66
2021/04/23 01:36:43;;;;;;;3.80;2.80;;;;;;;7.22;52.15;97047.16;5068931;28;20990;-60
2021/04/23 01:39:17;;;;;;;4.57;2.43;;;;;;;7.23;52.10;97046.16;5075763;28;20422;-60
2021/04/23 01:41:44;;;;;;;5.50;2.70;;;;;;;7.28;52.75;97042.00;5076261;28;20452;-60
2021/04/23 01:44:10;;;;;;;4.03;2.33;;;;;;;7.12;52.46;97051.91;5071855;28;20513;-60
2021/04/23 01:46:36;;;;;;;3.87;2.70;;;;;;;7.13;52.62;97038.66;5069216;28;20813;-66
2021/04/23 01:49:09;;;;;;;5.07;2.90;;;;;;;7.16;54.14;97046.13;5057242;28;20446;-60
2021/04/23 01:51:34;;;;;;;8.40;3.00;;;;;;;7.02;54.22;97059.22;5072940;28;20450;-66
2021/04/23 01:54:00;;;;;;;3.03;2.27;;;;;;;7.01;54.05;97060.25;5075859;28;20450;-66
2021/04/23 01:56:25;;;;;;;5.50;2.77;;;;;;;6.96;54.19;97059.97;5075944;28;20171;-60
2021/04/23 01:58:51;;;;;;;6.70;2.63;;;;;;;7.06;53.95;97066.53;5075465;28;20211;-60
2021/04/23 02:01:17;;;;;;;4.27;2.63;;;;;;;7.16;52.76;97060.97;5057352;28;20526;-66
2021/04/23 02:03:44;;;;;;;8.50;3.10;;;;;;;7.09;53.46;97066.16;5061630;28;20241;-60
2021/04/23 02:06:11;;;;;;;8.97;2.83;;;;;;;7.23;53.06;97064.44;5075717;28;20400;-60
2021/04/23 02:08:37;;;;;;;3.67;2.73;;;;;;;7.04;53.12;97063.28;5069146;28;20461;-66
2021/04/23 02:11:08;;;;;;;7.13;4.00;;;;;;;6.91;54.74;97070.16;5056430;28;20807;-66
2021/04/23 02:13:34;;;;;;;5.87;2.93;;;;;;;7.03;54.22;97066.06;5075649;28;20441;-60
2021/04/23 02:16:00;;;;;;;4.50;2.70;;;;;;;7.08;53.42;97069.75;5075519;28;20404;-60
2021/04/23 02:18:26;;;;;;;3.90;2.80;;;;;;;7.07;52.72;97073.34;5067490;28;20422;-61
2021/04/23 02:20:52;;;;;;;3.50;2.53;;;;;;;6.81;53.97;97073.06;5055858;28;20234;-66
2021/04/23 02:23:20;;;;;;;4.70;3.10;;;;;;;6.75;54.07;97071.22;5060175;28;20786;-66
2021/04/23 02:25:48;;;;;;;4.83;3.17;;;;;;;6.57;54.35;97070.00;5075443;28;20406;-66
2021/04/23 02:28:13;;;;;;;4.83;2.57;;;;;;;6.64;54.78;97073.47;5074839;28;20756;-66
2021/04/23 02:30:45;;;;;;;3.50;2.60;;;;;;;6.69;54.75;97081.56;5074551;28;20398;-66
2021/04/23 02:33:16;;;;;;;5.03;2.97;;;;;;;6.68;55.06;97083.38;5073210;28;20202;-60
2021/04/23 02:35:42;;;;;;;4.90;2.20;;;;;;;6.49;54.19;97083.13;5075598;28;20429;-66
2021/04/23 02:38:08;;;;;;;4.50;2.63;;;;;;;6.34;54.79;97083.13;5074887;28;20756;-66
2021/04/23 02:40:34;;;;;;;4.60;3.27;;;;;;;6.41;56.04;97076.22;5075175;28;20180;-66
2021/04/23 02:43:05;;;;;;;3.30;2.67;;;;;;;6.36;56.08;97081.16;5074379;28;20657;-66
2021/04/23 02:45:35;;;;;;;4.20;2.60;;;;;;;6.44;55.24;97078.47;5075226;28;20863;-60
2021/04/23 02:48:01;;;;;;;8.50;3.20;;;;;;;6.28;55.66;97085.69;5055646;28;20417;-60
2021/04/23 02:50:29;;;;;;;6.43;3.23;;;;;;;6.43;55.67;97083.88;5054743;28;20439;-60
2021/04/23 02:52:56;;;;;;;4.00;2.77;;;;;;;6.39;56.03;97083.44;5054706;28;20165;-66
2021/04/23 02:55:22;;;;;;;3.33;2.23;;;;;;;6.49;56.20;97080.50;5054877;28;20422;-60
2021/04/23 02:58:18;;;;;;;4.80;3.20;;;;;;;6.37;55.85;97089.81;5055531;28;20525;-66
2021/04/23 03:00:47;;;;;;;8.20;3.10;;;;;;;6.09;57.14;97089.63;5065652;28;20592;-66
2021/04/23 03:03:13;;;;;;;6.60;3.00;;;;;;;6.27;55.92;97089.28;5072449;28;20417;-60
2021/04/23 03:05:43;;;;;;;7.13;3.23;;;;;;;6.20;56.98;97089.19;5074775;28;20419;-60
2021/04/23 03:08:09;;;;;;;7.97;3.00;;;;;;;6.17;57.97;97086.94;5074076;28;20221;-66
2021/04/23 03:10:39;;;;;;;3.70;2.63;;;;;;;5.90;58.48;97090.97;5072705;28;20972;-60
2021/04/23 03:13:11;;;;;;;4.10;3.10;;;;;;;5.84;58.58;97086.47;5074792;28;20456;-66
2021/04/23 03:15:37;;;;;;;5.60;2.97;;;;;;;5.87;58.77;97091.31;5058881;28;20490;-66
2021/04/23 03:18:03;;;;;;;3.07;2.70;;;;;;;5.89;59.30;97091.13;5061730;28;20903;-66
2021/04/23 03:20:29;;;;;;;6.97;3.50;;;;;;;5.97;57.92;97093.69;5062944;28;20191;-60
2021/04/23 03:22:55;;;;;;;5.43;3.20;;;;;;;5.80;58.26;97098.19;5054276;28;20425;-59
2021/04/23 03:25:26;;;;;;;5.27;2.83;;;;;;;5.75;58.70;97089.28;5054355;28;20518;-60
2021/04/23 03:27:52;;;;;;;5.37;2.70;;;;;;;5.87;58.86;97096.53;5067725;28;20779;-59
2021/04/23 03:30:24;;;;;;;3.70;2.80;;;;;;;5.91;57.82;97092.59;5074090;28;20429;-66
2021/04/23 03:32:50;;;;;;;4.40;2.97;;;;;;;5.86;57.34;97094.09;5062184;28;20283;-59
2021/04/23 03:35:16;;;;;;;6.90;2.60;;;;;;;5.92;57.59;97102.06;5054206;28;20414;-66
2021/04/23 03:37:43;;;;;;;4.17;2.60;;;;;;;5.74;57.58;97109.34;5053627;28;20412;-65
2021/04/23 03:40:10;;;;;;;7.57;3.03;;;;;;;5.39;59.58;97099.56;5052559;28;20444;-66
2021/04/23 03:42:36;;;;;;;7.40;3.27;;;;;;;5.41;59.44;97101.97;5063746;28;20845;-66
2021/04/23 03:45:02;;;;;;;6.57;2.70;;;;;;;5.50;59.88;97101.75;5074035;28;20394;-60
2021/04/23 03:47:27;;;;;;;4.47;2.60;;;;;;;5.60;58.66;97104.13;5062737;28;20175;-66
2021/04/23 03:49:53;;;;;;;3.73;3.00;;;;;;;5.65;58.88;97115.59;5053616;28;20433;-60
2021/04/23 03:52:18;;;;;;;4.00;2.77;;;;;;;5.31;59.29;97107.41;5053912;28;20182;-65
2021/04/23 03:54:44;;;;;;;4.93;3.27;;;;;;;5.05;60.77;97104.34;5053567;28;20278;-60
2021/04/23 03:57:09;;;;;;;6.23;3.57;;;;;;;5.11;60.79;97106.25;5062229;28;20173;-66
2021/04/23 03:59:35;;;;;;;3.57;2.50;;;;;;;5.38;60.24;97108.34;5073676;28;20717;-66
2021/04/23 04:02:00;;;;;;;4.13;3.00;;;;;;;5.59;59.00;97110.28;5064857;28;20171;-66
2021/04/23 04:04:26;;;;;;;5.10;3.20;;;;;;;5.56;58.66;97114.06;5053723;28;20573;-65
2021/04/23 04:06:52;;;;;;;3.63;2.73;;;;;;;5.39;59.61;97111.75;5053368;28;20173;-66
2021/04/23 04:09:18;;;;;;;6.43;3.20;;;;;;;5.24;60.42;97116.91;5053344;28;20657;-66
2021/04/23 04:11:44;;;;;;;3.93;2.87;;;;;;;5.15;61.13;97118.78;5053720;28;20213;-59
2021/04/23 04:14:09;;;;;;;3.40;3.00;;;;;;;5.03;61.96;97119.34;5053285;28;20449;-66
2021/04/23 04:16:34;;;;;;;4.90;3.00;;;;;;;5.31;60.31;97124.84;5060360;28;20422;-66
2021/04/23 04:19:00;;;;;;;2.80;2.60;;;;;;;5.38;60.20;97128.38;5073123;28;20601;-66
2021/04/23 04:21:25;;;;;;;7.70;3.63;;;;;;;5.38;59.97;97129.19;5073547;28;20196;-65
2021/04/23 04:23:51;;;;;;;3.20;2.80;;;;;;;5.48;59.86;97132.38;5073405;28;20169;-60
2021/04/23 04:26:16;;;;;;;5.90;3.50;;;;;;;5.50;60.22;97137.41;5055416;28;20183;-66
2021/04/23 04:28:42;;;;;;;8.67;3.70;;;;;;;5.50;60.08;97125.19;5052858;28;20249;-60
2021/04/23 04:31:07;;;;;;;6.33;2.87;;;;;;;5.43;59.24;97128.66;5053398;28;20167;-66
2021/04/23 04:33:32;;;;;;;3.43;2.97;;;;;;;5.37;59.66;97132.78;5053379;28;20195;-60
2021/04/23 04:35:58;;;;;;;4.17;3.30;;;;;;;5.33;59.85;97131.50;5053313;28;20251;-66
2021/04/23 04:38:23;;;;;;;7.33;2.83;;;;;;;5.29;60.59;97134.63;5052796;28;20686;-66
2021/04/23 04:40:52;;;;;;;6.67;3.73;;;;;;;5.32;61.08;97132.50;5060882;28;20169;-66
2021/04/23 04:43:18;;;;;;;4.83;2.90;;;;;;;5.39;60.92;97140.41;5064006;28;20173;-66
2021/04/23 04:45:45;;;;;;;3.83;2.87;;;;;;;5.29;60.68;97142.44;5073218;28;20886;-65
2021/04/23 04:48:11;;;;;;;6.10;3.60;;;;;;;5.08;61.44;97140.47;5072715;28;20455;-59
2021/04/23 04:50:50;;;;;;;7.03;4.00;;;;;;;5.11;61.43;97140.94;5072997;28;20501;-66
2021/04/23 04:53:17;;;;;;;5.80;3.00;;;;;;;5.34;60.71;97142.75;5073779;28;20785;-60
2021/04/23 04:55:46;;;;;;;5.47;3.37;;;;;;;5.41;60.30;97144.47;5064142;28;20507;-60
2021/04/23 04:58:15;;;;;;;4.33;3.00;;;;;;;5.42;61.59;97151.31;5056520;28;20420;-60
2021/04/23 05:00:42;;;;;;;8.57;3.20;;;;;;;5.46;60.98;97149.16;5057063;28;20423;-65
2021/04/23 05:03:08;;;;;;;6.63;3.53;;;;;;;5.58;60.70;97148.56;5056860;28;20401;-65
2021/04/23 05:05:34;;;;;;;3.50;3.03;;;;;;;5.68;61.60;97154.38;5057294;28;20492;-65
2021/04/23 05:08:00;;;;;;;3.93;3.53;;;;;;;5.76;61.84;97159.50;5055186;28;20492;-65
2021/04/23 05:10:27;;;;;;;5.50;4.20;;;;;;;5.82;62.90;97150.97;5068537;28;20240;-66
2021/04/23 05:12:53;;;;;;;5.40;3.73;;;;;;;5.88;62.96;97152.94;5076784;28;20492;-66
2021/04/23 05:15:18;;;;;;;5.90;3.60;;;;;;;6.01;63.12;97154.94;5073400;28;20526;-59
2021/04/23 05:17:45;;;;;;;4.33;3.80;;;;;;;6.07;62.99;97160.22;5054933;28;20915;-65
2021/04/23 05:20:11;;;;;;;7.53;3.43;;;;;;;6.28;62.05;97156.13;5056579;28;20183;-59
2021/04/23 05:22:37;;;;;;;5.67;3.67;;;;;;;6.40;62.73;97154.69;5056507;28;20407;-66
2021/04/23 05:25:05;;;;;;;5.40;3.40;;;;;;;6.47;62.17;97153.78;5067466;28;20410;-66
2021/04/23 05:27:30;;;;;;;6.03;4.10;;;;;;;6.60;62.29;97166.19;5076180;28;20401;-59
2021/04/23 05:29:56;;;;;;;6.47;5.17;;;;;;;6.66;62.34;97163.69;5074232;28;20463;-66
2021/04/23 05:32:21;;;;;;;5.53;3.80;;;;;;;6.71;62.77;97169.19;5075731;28;20545;-60
2021/04/23 05:34:48;;;;;;;6.17;3.60;;;;;;;6.87;63.16;97171.59;5076673;28;20206;-66
2021/04/23 05:37:14;;;;;;;6.20;3.63;;;;;;;7.00;62.84;97176.16;5075838;28;20166;-60
2021/04/23 05:39:42;;;;;;;7.67;3.83;;;;;;;7.08;63.33;97181.28;5065946;28;20437;-66
2021/04/23 05:42:08;;;;;;;7.10;3.50;;;;;;;7.27;62.54;97181.50;5059311;28;20183;-66
2021/04/23 05:44:34;;;;;;;4.60;3.23;;;;;;;7.36;61.57;97191.84;5076206;28;20405;-60
2021/04/23 05:46:59;;;;;;;7.87;4.13;;;;;;;7.44;61.65;97181.28;5075830;28;20212;-66
2021/04/23 05:49:24;;;;;;;5.47;3.67;;;;;;;7.57;61.57;97184.84;5076247;28;20196;-66
2021/04/23 05:51:50;;;;;;;6.97;4.27;;;;;;;7.67;60.20;97184.53;5076115;28;20174;-66
2021/04/23 05:54:16;;;;;;;5.73;3.80;;;;;;;7.74;60.03;97188.00;5067409;28;20230;-60
2021/04/23 05:56:41;;;;;;;4.00;3.37;;;;;;;7.84;59.61;97186.72;5074393;28;20956;-66
2021/04/23 05:59:06;;;;;;;7.10;4.40;;;;;;;8.02;59.79;97188.88;5075583;28;20203;-66
2021/04/23 06:01:32;;;;;;;8.10;3.97;;;;;;;8.08;60.11;97194.16;5074568;28;20190;-66
2021/04/23 06:03:57;;;;;;;5.70;4.10;;;;;;;8.20;59.48;97197.88;5063925;28;20266;-60
2021/04/23 06:06:23;;;;;;;10.13;4.87;;;;;;;8.39;58.36;97198.25;5054494;28;20194;-66
2021/04/23 06:08:48;;;;;;;7.50;4.33;;;;;;;8.51;58.47;97197.53;5055037;28;20614;-66
2021/04/23 06:11:18;;;;;;;5.67;3.43;;;;;;;8.60;58.41;97198.19;5056677;28;20232;-66
2021/04/23 06:13:45;;;;;;;6.93;4.03;;;;;;;8.66;58.20;97194.81;5074145;28;20213;-66
2021/04/23 06:16:10;;;;;;;8.70;3.80;;;;;;;8.76;59.05;97187.38;5075092;28;20406;-66
2021/04/23 06:18:37;;;;;;;6.17;3.93;;;;;;;8.89;58.26;97197.94;5075064;28;20945;-66
2021/04/23 06:21:02;;;;;;;4.67;3.80;;;;;;;8.99;56.95;97206.25;5075524;28;20174;-60
2021/04/23 06:23:28;;;;;;;6.73;3.63;;;;;;;9.08;55.76;97205.06;5073209;28;20511;-60
2021/04/23 06:25:53;;;;;;;5.17;4.17;;;;;;;9.13;56.35;97200.88;5070925;28;20197;-60
2021/04/23 06:28:19;;;;;;;6.80;4.20;;;;;;;9.17;54.85;97202.09;5075060;28;20170;-60
2021/04/23 06:30:45;;;;;;;6.83;4.30;;;;;;;9.25;56.02;97209.81;5075449;28;20540;-66
2021/04/23 06:33:23;;;;;;;9.63;5.50;;;;;;;9.44;56.16;97217.94;5075152;28;20201;-66
2021/04/23 06:35:49;;;;;;;8.53;4.47;;;;;;;9.47;55.41;97210.47;5075254;28;20175;-66
2021/04/23 06:38:15;;;;;;;10.20;4.83;;;;;;;9.58;54.67;97214.34;5074675;28;20741;-60
2021/04/23 06:40:41;;;;;;;9.70;4.63;;;;;;;9.65;53.75;97215.97;5059452;28;20429;-66
2021/04/23 06:43:07;;;;;;;7.53;3.50;;;;;;;9.75;53.32;97216.41;5055253;28;20184;-66
2021/04/23 06:45:34;;;;;;;5.97;4.10;;;;;;;9.79;51.44;97219.44;5055025;28;20467;-60
2021/04/23 06:48:00;;;;;;;9.83;4.17;;;;;;;9.80;51.95;97224.47;5054448;28;20410;-66
2021/04/23 06:50:25;;;;;;;5.83;3.67;;;;;;;9.75;50.95;97221.63;5054788;28;20454;-60
2021/04/23 06:52:53;;;;;;;6.90;4.20;;;;;;;9.82;52.01;97226.91;5055014;28;20623;-66
2021/04/23 06:55:21;;;;;;;7.90;4.10;;;;;;;9.92;50.42;97219.47;5069205;28;20177;-60
2021/04/23 06:57:47;;;;;;;6.87;4.03;;;;;;;9.96;49.47;97224.13;5074459;28;20427;-60
2021/04/23 07:00:25;;;;;;;8.00;3.97;;;;;;;9.99;51.54;97228.97;5073621;28;20451;-66
2021/04/23 07:02:52;;;;;;;9.83;4.20;;;;;;;10.12;51.02;97231.63;5073580;28;20418;-60
2021/04/23 07:05:18;;;;;;;6.20;4.43;;;;;;;10.31;51.12;97222.13;5061347;28;20428;-66
2021/04/23 07:07:44;;;;;;;7.97;3.77;;;;;;;10.35;51.41;97225.97;5071981;28;20442;-60
2021/04/23 07:10:12;;;;;;;9.43;4.17;;;;;;;10.12;50.14;97222.94;5062227;28;20475;-69
2021/04/23 07:12:38;;;;;;;9.67;4.20;;;;;;;10.17;49.40;97231.03;5065358;28;20260;-62
2021/04/23 07:15:06;;;;;;;11.27;4.60;;;;;;;10.22;50.88;97229.41;5059578;28;20541;-62
2021/04/23 07:17:32;;;;;;;8.57;4.60;;;;;;;10.51;51.02;97235.28;5055131;28;20431;-62
2021/04/23 07:19:57;;;;;;;6.03;4.67;;;;;;;10.53;50.10;97235.84;5074352;28;20497;-69
2021/04/23 07:22:23;;;;;;;9.50;4.20;;;;;;;10.69;49.64;97235.47;5074397;28;20228;-61
2021/04/23 07:24:48;;;;;;;7.33;4.37;;;;;;;10.77;50.04;97228.16;5074328;28;20174;-67
2021/04/23 07:27:13;;;;;;;9.47;4.13;;;;;;;10.56;50.02;97241.53;5062721;28;20174;-69
2021/04/23 07:29:39;;;;;;;10.43;4.77;;;;;;;10.73;47.65;97226.94;5054120;28;20694;-60
2021/04/23 07:32:05;;;;;;;7.53;4.10;;;;;;;10.84;47.34;97233.38;5054163;28;20252;-61
2021/04/23 07:34:30;;;;;;;9.43;4.57;;;;;;;10.92;46.91;97236.63;5054072;28;20280;-67
2021/04/23 07:36:56;;;;;;;8.63;4.00;;;;;;;10.93;46.87;97226.91;5058992;28;20539;-67
2021/04/23 07:39:26;;;;;;;12.60;4.93;;;;;;;11.02;48.75;97234.38;5067524;28;20202;-65
2021/04/23 07:41:53;;;;;;;6.73;4.37;;;;;;;10.94;49.57;97237.22;5054155;28;20178;-61
2021/04/23 07:44:20;;;;;;;8.80;4.40;;;;;;;11.05;46.84;97238.41;5053891;28;20409;-61
2021/04/23 07:46:45;;;;;;;10.90;4.50;;;;;;;11.10;48.55;97239.41;5061727;28;20423;-61
2021/04/23 07:49:11;;;;;;;8.37;3.90;;;;;;;11.48;48.35;97230.75;5071461;28;20444;-61
2021/04/23 07:51:36;;;;;;;7.00;4.90;;;;;;;11.60;47.88;97239.59;5069156;28;20180;-64
2021/04/23 07:54:02;;;;;;;8.67;4.47;;;;;;;11.62;46.60;97242.84;5065112;28;20700;-59
2021/04/23 07:56:28;;;;;;;7.73;4.53;;;;;;;11.54;45.09;97238.63;5050185;28;20199;-61
2021/04/23 07:58:53;;;;;;;13.93;4.67;;;;;;;11.48;45.20;97242.09;5049695;28;20525;-63
2021/04/23 08:01:19;;;;;;;6.90;4.03;;;;;;;11.61;47.04;97236.78;5049570;28;20172;-64
2021/04/23 08:03:44;;;;;;;11.57;4.40;;;;;;;11.80;45.52;97235.88;5050252;28;20174;-59
2021/04/23 08:06:09;;;;;;;10.50;4.50;;;;;;;11.72;45.55;97238.75;5050201;28;20198;-61
2021/04/23 08:08:35;;;;;;;6.80;4.43;;;;;;;12.00;43.95;97241.03;5053462;28;20201;-63
2021/04/23 08:11:00;;;;;;;6.77;4.30;;;;;;;12.26;43.70;97236.41;5053083;28;20651;-66
2021/04/23 08:13:26;;;;;;;6.60;4.77;;;;;;;12.34;43.82;97240.59;5050098;28;20203;-61
2021/04/23 08:15:51;;;;;;;11.63;4.83;;;;;;;12.46;43.02;97243.34;5053482;28;20185;-61
2021/04/23 08:18:17;;;;;;;6.17;4.07;;;;;;;12.43;43.14;97241.94;5052860;28;20594;-67
2021/04/23 08:20:42;;;;;;;8.23;4.97;;;;;;;12.19;44.24;97234.84;5053458;28;20225;-60
2021/04/23 08:23:08;;;;;;;10.63;5.70;;;;;;;12.38;42.35;97237.31;5054458;28;20538;-61
2021/04/23 08:25:33;;;;;;;9.20;5.90;;;;;;;12.27;43.26;97237.19;5059539;28;20183;-67
2021/04/23 08:27:59;;;;;;;11.47;5.53;;;;;;;12.34;45.13;97237.94;5066428;28;20175;-61
2021/04/23 08:30:27;;;;;;;7.57;5.87;;;;;;;12.66;43.40;97239.53;5073260;28;20187;-60
2021/04/23 08:32:53;;;;;;;8.47;5.97;;;;;;;12.84;42.63;97242.19;5073298;28;20181;-66
2021/04/23 08:35:18;;;;;;;9.30;6.20;;;;;;;13.12;41.76;97237.25;5073418;28;20413;-66
2021/04/23 08:37:44;;;;;;;8.90;5.40;;;;;;;13.03;42.08;97240.38;5072936;28;20421;-66
2021/04/23 08:40:14;;;;;;;14.60;5.63;;;;;;;13.14;41.12;97237.03;5056841;28;20190;-66
2021/04/23 08:42:40;;;;;;;10.60;5.93;;;;;;;12.97;40.56;97239.41;5053188;28;20177;-67
2021/04/23 08:45:13;;;;;;;9.60;5.77;;;;;;;13.10;42.17;97234.03;5053169;28;20394;-60
2021/04/23 08:47:39;;;;;;;8.50;4.97;;;;;;;12.98;44.20;97232.31;5052787;28;20421;-60
2021/04/23 08:50:06;;;;;;;9.23;5.47;;;;;;;13.11;43.51;97234.84;5052875;28;20491;-66
2021/04/23 08:52:32;;;;;;;9.80;6.00;;;;;;;12.95;42.49;97230.94;5052986;28;20836;-66
2021/04/23 08:54:57;;;;;;;9.80;5.43;;;;;;;13.20;40.74;97234.34;5069010;28;20445;-66
2021/04/23 08:57:23;;;;;;;10.53;6.40;;;;;;;13.44;41.94;97243.97;5072812;28;20644;-61
2021/04/23 08:59:48;;;;;;;8.03;4.77;;;;;;;13.77;41.27;97242.78;5073023;28;20187;-66
2021/04/23 09:02:14;;;;;;;5.83;4.33;;;;;;;13.70;39.40;97234.94;5073202;28;20174;-60
2021/04/23 09:04:40;;;;;;;9.20;5.80;;;;;;;13.70;39.13;97239.38;5071797;28;20170;-67
2021/04/23 09:07:07;;;;;;;9.70;5.90;;;;;;;13.34;38.90;97237.63;5072594;28;20225;-61
2021/04/23 09:09:43;;;;;;;9.70;5.57;;;;;;;13.58;38.93;97234.06;5069448;28;20608;-61
2021/04/23 09:12:35;;;;;;;7.87;5.67;;;;;;;13.50;41.56;97234.38;5073006;28;20457;-61
2021/04/23 09:15:02;;;;;;;9.87;4.90;;;;;;;13.57;41.84;97234.31;5070336;28;20966;-61
2021/04/23 09:17:29;;;;;;;9.87;5.70;;;;;;;13.71;40.50;97231.28;5072559;28;20413;-66
2021/04/23 09:19:56;;;;;;;8.03;5.47;;;;;;;13.79;39.52;97233.59;5072685;28;20425;-66
2021/04/23 09:22:32;;;;;;;9.20;5.40;;;;;;;14.06;40.23;97232.19;5072924;28;20401;-60
2021/04/23 09:25:04;;;;;;;11.50;5.60;;;;;;;14.25;38.94;97235.56;5052787;28;20408;-66
2021/04/23 09:27:33;;;;;;;8.50;4.83;;;;;;;14.44;39.78;97240.56;5052479;28;20447;-67
2021/04/23 09:30:03;;;;;;;9.40;4.93;;;;;;;14.33;40.29;97241.34;5052766;28;20426;-61
2021/04/23 09:32:33;;;;;;;9.93;5.47;;;;;;;14.65;38.49;97238.41;5052856;28;20426;-66
2021/04/23 09:35:19;;;;;;;9.93;5.03;;;;;;;14.76;36.43;97230.50;5052798;28;20441;-68
2021/04/23 09:37:53;;;;;;;10.90;6.00;;;;;;;14.73;40.69;97236.22;5056258;28;20763;-60
2021/04/23 09:40:32;;;;;;;9.87;5.90;;;;;;;14.70;37.69;97236.69;5056516;28;20999;-66
2021/04/23 09:43:03;;;;;;;8.70;5.37;;;;;;;14.61;39.70;97238.06;5076203;28;20421;-61
2021/04/23 09:45:34;;;;;;;8.90;5.63;;;;;;;14.68;36.90;97244.03;5076299;28;20448;-66
2021/04/23 09:48:00;;;;;;;9.80;5.20;;;;;;;14.96;37.76;97230.94;5075889;28;20892;-60
2021/04/23 09:50:37;;;;;;;11.23;6.40;;;;;;;15.00;37.28;97234.72;5058683;28;20454;-67
2021/04/23 09:53:03;;;;;;;12.07;6.33;;;;;;;15.07;36.08;97237.25;5055341;28;20182;-67
2021/04/23 09:55:32;;;;;;;11.97;6.23;;;;;;;15.11;35.81;97233.13;5059183;28;20425;-68
2021/04/23 09:58:01;;;;;;;8.33;5.90;;;;;;;15.03;36.21;97233.47;5075495;28;20163;-64
2021/04/23 10:00:29;;;;;;;8.87;5.87;;;;;;;15.08;36.48;97233.56;5075693;28;20428;-63
2021/04/23 10:03:00;;;;;;;9.93;6.40;;;;;;;15.26;37.47;97223.66;5075937;28;20899;-69
2021/04/23 10:05:30;;;;;;;8.23;5.93;;;;;;;15.34;38.33;97233.06;5068504;28;20434;-62
2021/04/23 10:07:56;;;;;;;11.53;6.47;;;;;;;15.36;36.84;97226.47;5056929;28;20450;-63
2021/04/23 10:10:21;;;;;;;9.60;6.50;;;;;;;15.58;38.44;97237.28;5056382;28;20873;-63
2021/04/23 10:12:59;;;;;;;10.40;6.40;;;;;;;15.54;36.40;97233.50;5055436;28;20175;-64
2021/04/23 10:15:30;;;;;;;9.17;6.63;;;;;;;15.85;37.71;97230.38;5059251;28;20171;-69
2021/04/23 10:17:58;;;;;;;14.33;6.57;;;;;;;15.63;39.36;97226.81;5065457;28;20416;-69
2021/04/23 10:20:32;;;;;;;10.10;5.67;;;;;;;15.52;40.91;97230.28;5095351;28;20428;-69
2021/04/23 10:22:59;;;;;;;7.70;5.73;;;;;;;15.70;38.34;97232.78;5088513;28;20427;-64
2021/04/23 10:25:26;;;;;;;7.40;5.67;;;;;;;15.71;33.82;97231.72;5095074;28;20407;-63
2021/04/23 10:27:54;;;;;;;9.33;6.07;;;;;;;15.63;38.90;97232.09;5084881;28;20417;-69
2021/04/23 10:30:22;;;;;;;8.57;6.00;;;;;;;15.89;36.09;97231.53;5059416;28;20533;-69
2021/04/23 10:32:53;;;;;;;8.43;5.10;;;;;;;16.18;36.58;97235.75;5053734;28;20414;-63
2021/04/23 10:35:20;;;;;;;8.43;5.70;;;;;;;16.17;35.87;97231.53;5054500;28;20469;-64
2021/04/23 10:37:46;;;;;;;12.90;7.73;;;;;;;16.06;34.97;97232.38;5054347;28;20402;-63
2021/04/23 10:40:14;;;;;;;6.40;5.77;;;;;;;16.38;34.73;97224.69;5059780;28;20518;-69
2021/04/23 10:42:45;;;;;;;11.50;6.10;;;;;;;16.48;35.16;97219.59;5074796;28;20941;-64
2021/04/23 10:45:34;;;;;;;9.83;6.00;;;;;;;16.26;34.37;97219.47;5062709;28;20446;-69
2021/04/23 10:48:02;;;;;;;8.50;5.03;;;;;;;16.77;35.37;97222.94;5067455;28;20429;-69
2021/04/23 10:50:38;;;;;;;10.60;5.47;;;;;;;16.74;36.62;97218.13;5074453;28;20509;-69
2021/04/23 10:53:11;;;;;;;13.53;6.10;;;;;;;16.89;33.23;97221.00;5058901;28;20500;-64
2021/04/23 10:55:44;;;;;;;12.87;5.60;;;;;;;16.91;33.29;97216.25;5054743;28;20543;-69
2021/04/23 10:58:12;;;;;;;8.70;5.33;;;;;;;17.16;34.51;97217.41;5054258;28;20394;-69
2021/04/23 11:00:44;;;;;;;8.33;5.67;;;;;;;17.33;33.96;97214.69;5071188;28;20895;-69
2021/04/23 11:03:34;;;;;;;11.30;7.07;;;;;;;17.50;35.13;97212.81;5058804;28;20424;-64
2021/04/23 11:06:04;;;;;;;12.23;7.73;;;;;;;17.62;31.21;97218.81;5053231;28;20410;-69
2021/04/23 11:08:34;;;;;;;12.60;7.00;;;;;;;17.57;32.43;97217.94;5054143;28;20434;-69
2021/04/23 11:10:59;;;;;;;11.40;7.50;;;;;;;17.18;31.30;97214.50;5054374;28;20440;-69
2021/04/23 11:13:30;;;;;;;8.83;5.77;;;;;;;17.06;35.28;97211.16;5063967;28;20465;-68
2021/04/23 11:18:47;;;;;;;8.47;6.30;;;;;;;17.34;31.81;97211.78;5073974;28;20486;-69
2021/04/23 11:21:31;;;;;;;8.37;5.93;;;;;;;17.33;30.49;97212.03;5072699;28;20454;-63
2021/04/23 11:24:14;;;;;;;11.67;5.73;;;;;;;17.44;29.27;97211.94;5054156;28;20406;-68
2021/04/23 11:29:26;;;;;;;7.33;5.13;;;;;;;17.64;30.12;97218.56;5054165;28;20441;-64
2021/04/23 11:32:08;;;;;;;11.00;5.80;;;;;;;17.63;27.79;97203.66;5054134;28;20863;-63
2021/04/23 11:35:09;;;;;;;6.60;5.23;;;;;;;17.35;29.54;97209.94;5069799;28;20488;-69
2021/04/23 11:37:40;;;;;;;9.57;5.50;;;;;;;17.79;30.70;97202.78;5071044;28;20934;-69
2021/04/23 11:40:17;;;;;;;10.07;4.90;;;;;;;18.05;32.11;97197.44;5073884;28;20545;-69
2021/04/23 11:43:01;;;;;;;9.33;5.27;;;;;;;18.37;29.30;97192.16;5057576;28;20525;-68
2021/04/23 11:45:26;;;;;;;10.80;5.10;;;;;;;18.45;31.38;97189.84;5054101;28;20429;-69
2021/04/23 11:47:55;;;;;;;10.80;6.03;;;;;;;18.30;31.71;97189.69;5054388;28;20781;-63